Ew Scripps Cothe-A (SSP) Latest Bloomsberg Price


Mffais Ranking #1862 Overall / #23 Industry
Industry: Publishing And Broadcasting

Number of Companies: 106 (Ranking #1577 Overall/#8 Industry)
Inflow: $ 34,450 (K) (Ranking #1494 Overall/#5 Industry)
Outflow: $ -44,175 (K)
Mffais Flow: $ -9,724 (K) (Ranking #1862 Overall/#23 Industry)


Receive a FREE weekly executive review of stocks moving into the top 10, taking the top industy spot or moving up within their industry. Sent directly to your Inbox every Saturday. Sign up today and get last week's review immediately sent to you.

We value and respect your privacy. Please read our Terms and Conditions which states our firm commitment to your privacy. Your email address will not be shared with a third party, nor will it be sold or used for purposes other than subscription for the weekly review.

Owner CPOR Shares Action Qty Chg Invested (K) Total Current Value (K)
Silvercrest Asset Management Group Llc 2016-09-30 2,007,838 Added More 477,732 $ 8,307 $ 34,916
Cove Street Capital Llc 2016-09-30 1,083,150 Added More 401,490 $ 6,981 $ 18,835
Jupiter Asset Management Ltd 2016-09-30 267,985 New Holding 267,985 $ 4,660 $ 4,660
Tealwood Asset Management Inc 2016-09-30 163,030 New Holding 163,030 $ 2,835 $ 2,835
Kennedy Capital Management Inc 2016-09-30 1,164,789 Added More 74,957 $ 1,303 $ 20,255
Blackstone Group L P 2016-09-30 570,195 Added More 55,274 $ 961 $ 9,915
Sentry Investment Management Llc 2016-09-30 168,492 Added More 54,665 $ 950 $ 2,930
Stifel Financial Corp 2016-09-30 295,811 Added More 49,584 $ 862 $ 5,144
Northpointe Capital Llc 2016-09-30 383,580 Added More 48,014 $ 834 $ 6,670
Dimensional Fund Advisors Lp 2016-09-30 5,538,900 Added More 40,794 $ 709 $ 96,321
Legal General Group Plc 2016-09-30 48,029 Added More 39,343 $ 684 $ 835
Gabelli Funds Llc 2016-09-30 2,238,661 Added More 29,414 $ 511 $ 38,930
Caprock Group Inc 2016-09-30 26,959 New Holding 26,959 $ 468 $ 468
Gamco Investors Inc Et Al 2016-09-30 7,766,807 Added More 26,289 $ 457 $ 135,064
Phocas Financial Corp 2016-09-30 394,739 Added More 24,032 $ 417 $ 6,864
Princeton Alpha Management Lp 2016-09-30 23,131 New Holding 23,131 $ 402 $ 402
Northern Trust Corp 2016-09-30 1,607,867 Added More 19,911 $ 346 $ 27,960
Stevens Capital Management Lp 2016-09-30 18,150 New Holding 18,150 $ 315 $ 315
Jane Street Group Llc 2016-09-30 17,714 New Holding 17,714 $ 308 $ 308
Css Llc Il 2016-09-30 16,829 New Holding 16,829 $ 292 $ 292
Aperio Group Llc 2016-09-30 14,371 New Holding 14,371 $ 249 $ 249
Pacad Investment Ltd 2016-09-30 13,700 New Holding 13,700 $ 238 $ 238
Sg Americas Securities Llc 2016-09-30 13,370 New Holding 13,370 $ 232 $ 232
Gotham Asset Management Llc 2016-09-30 10,089 New Holding 10,089 $ 175 $ 175
Quantbot Technologies Lp 2016-09-30 8,905 New Holding 8,905 $ 154 $ 154
Keybank National Association Oh 2016-09-30 89,208 Added More 6,112 $ 106 $ 1,551
Rhumbline Advisers 2016-09-30 107,976 Added More 4,450 $ 77 $ 1,877
State Of Tennessee Treasury Department 2016-09-30 45,740 Added More 4,160 $ 72 $ 795
Public Sector Pension Investment Board 2016-09-30 40,523 Added More 3,600 $ 62 $ 704
Thrivent Financial For Lutherans 2016-09-30 29,233 Added More 3,200 $ 55 $ 508
Us Bancorp De 2016-09-30 143,062 Added More 3,149 $ 54 $ 2,487
Texas Permanent School Fund 2016-09-30 43,638 Added More 2,848 $ 49 $ 758
Gareth Morgan Investments Limited Partnership 2016-09-30 54,226 Added More 2,545 $ 44 $ 942
Comerica Bank 2016-09-30 119,030 Added More 2,118 $ 36 $ 2,069
Arizona State Retirement System 2016-09-30 29,658 Added More 2,000 $ 34 $ 515
Ladenburg Thalmann Financial Services Inc 2016-09-30 3,845 Added More 1,709 $ 29 $ 66
Mason Street Advisors Llc 2016-09-30 11,793 Added More 1,364 $ 23 $ 205
Orinda Asset Management Llc 2016-09-30 11,089 Added More 1,249 $ 21 $ 192
California State Teachers Retirement System 2016-09-30 126,073 Added More 1,200 $ 20 $ 2,192
Group One Trading L P 2016-09-30 900 New Holding 900 $ 15 $ 15
Blackrock Investment Management Llc 2016-09-30 267,649 Added More 817 $ 14 $ 4,654
Blackrock Inc 2016-09-30 15,887 Added More 712 $ 12 $ 276
American International Group Inc 2016-09-30 43,905 Added More 635 $ 11 $ 763
Pinebridge Investments L P 2016-09-30 7,283 Added More 518 $ 9 $ 126
First Republic Investment Management Inc 2016-09-30 15,563 Added More 460 $ 7 $ 270
Zurcher Kantonalbank Zurich Cantonalbank 2016-09-30 1,736 Added More 376 $ 6 $ 30
Capstone Asset Management Co 2016-09-30 16,099 Added More 360 $ 6 $ 279
Kcg Holdings Inc 2016-09-30 12,146 Added More 350 $ 6 $ 211
Hall Laurie J Trustee 2016-06-30 350 Added More 180 $ 2 $ 5
Ifp Advisors Inc 2016-09-30 145 New Holding 145 $ 2 $ 2
Ls Investment Advisors Llc 2016-09-30 2,106 Added More 128 $ 2 $ 36
Northwestern Mutual Wealth Management Co 2016-09-30 79 New Holding 79 $ 1 $ 1
Bronfman E L Rothschild L P 2016-09-30 38,812 No Change 0 $ 0 $ 674
New York State Teachers Retirement System 2016-09-30 72,961 No Change 0 $ 0 $ 1,268
Teachers Retirement System Of The State Of Kentucky 2016-09-30 19,033 No Change 0 $ 0 $ 330
First Manhattan Co 2016-09-30 2,598 No Change 0 $ 0 $ 45
Gabelli Securities Inc 2016-09-30 10,052 No Change 0 $ 0 $ 174
Croft-Leominster Inc 2016-09-30 29,000 No Change 0 $ 0 $ 504
Nisa Investment Advisors Llc 2016-09-30 11,300 No Change 0 $ 0 $ 196
Earnest Partners Llc 2016-09-30 1,242 No Change 0 $ 0 $ 21
Rbf Capital Llc 2016-09-30 10,352 No Change 0 $ 0 $ 180
S Muoio Co Llc 2016-09-30 28,255 No Change 0 $ 0 $ 491
Msi Financial Services Inc 2016-09-30 2,096 No Change 0 $ 0 $ 36
Benjamin F Edwards Company Inc 2016-09-30 62 No Change 0 $ 0 $ 1
Hightower Advisors Llc 2016-09-30 443,642 No Change 0 $ 0 $ 7,714
Lenox Wealth Management Inc 2016-09-30 78,499 No Change 0 $ 0 $ 1,365
Msd Partners L P 2016-09-30 908,403 No Change 0 $ 0 $ 15,797
Wfg Advisors Lp 2016-09-30 768 No Change 0 $ 0 $ 13
Minerva Advisors Llc 2016-09-30 617,031 No Change 0 $ 0 $ 10,730
Annex Advisory Services Llc 2016-09-30 44,011 No Change 0 $ 0 $ 765
Mraz Amerine Associates Inc 2016-09-30 38,633 No Change 0 $ 0 $ 671
Hudock Capital Group Llc 2016-09-30 68 No Change 0 $ 0 $ 1
Harwood Advisory Group Llc 2016-09-30 12,950 No Change 0 $ 0 $ 225
Advisor Group Inc 2016-09-30 550 No Change 0 $ 0 $ 9
Cornerstone Advisors Inc 2016-09-30 100 Sold Some -100 $ -1 $ 1
Johnson Financial Group Inc 2016-09-30 0 Sold All -155 $ -2 $ 0
Pnc Financial Services Group Inc 2016-09-30 5,028 Sold Some -428 $ -7 $ 87
Nationwide Fund Advisors 2016-09-30 47,313 Sold Some -633 $ -11 $ 822
Horizon Kinetics Llc 2016-09-30 141,006 Sold Some -1,100 $ -19 $ 2,452
Profund Advisors Llc 2016-09-30 10,788 Sold Some -1,830 $ -31 $ 187
Teton Advisors Inc 2016-09-30 906,048 Sold Some -2,076 $ -36 $ 15,756
Verition Fund Management Llc 2016-09-30 14,448 Sold Some -6,419 $ -111 $ 251
Swiss National Bank 2016-09-30 93,116 Sold Some -6,900 $ -119 $ 1,619
Teacher Retirement System Of Texas 2016-09-30 0 Sold All -7,512 $ -130 $ 0
Tower Research Capital Llc Trc 2016-09-30 1,319 Sold Some -7,898 $ -137 $ 22
Grt Capital Partners L L C 2016-09-30 12,500 Sold Some -10,500 $ -182 $ 217
Envestnet Asset Management Inc 2016-09-30 2,577 Sold Some -11,015 $ -191 $ 44
Cubist Systematic Strategies Llc 2016-09-30 0 Sold All -11,221 $ -195 $ 0
Pinnacle Associates Ltd 2016-09-30 1,126,419 Sold Some -12,010 $ -208 $ 19,588
Adirondack Research Management Inc 2016-09-30 364,325 Sold Some -15,000 $ -260 $ 6,335
Parametric Portfolio Associates Llc 2016-09-30 65,865 Sold Some -15,573 $ -270 $ 1,145
Laurion Capital Management Lp 2016-09-30 0 Sold All -16,090 $ -279 $ 0
Dynamic Technology Lab Private Ltd 2016-09-30 0 Sold All -16,814 $ -292 $ 0
Cutler Group Lp 2016-09-30 13,213 Sold Some -18,379 $ -319 $ 229
Teachers Advisors Inc 2016-09-30 471,877 Sold Some -19,577 $ -340 $ 8,205
Bayesian Capital Management Lp 2016-09-30 0 Sold All -20,000 $ -347 $ 0
Squarepoint Ops Llc 2016-09-30 0 Sold All -22,012 $ -382 $ 0
Steinberg Asset Management Llc 2016-09-30 121,295 Sold Some -29,010 $ -504 $ 2,109
Bislett Management Llc 2016-09-30 315,000 Sold Some -75,000 $ -1,304 $ 5,477
New York State Common Retirement Fund 2016-09-30 409,939 Sold Some -87,813 $ -1,527 $ 7,128
Thompson Siegel Walmsley Llc 2016-09-30 796,436 Sold Some -103,668 $ -1,802 $ 13,850
Emerald Acquisition Ltd 2016-09-30 313,230 Sold Some -245,088 $ -4,262 $ 5,447
Royce Associates Lp 2016-09-30 759,980 Sold Some -250,930 $ -4,363 $ 13,216
King Luther Capital Management Corp 2016-09-30 271,690 Sold Some -387,830 $ -6,744 $ 4,724
Monarch Partners Asset Management Llc 2016-09-30 0 Sold All -453,993 $ -7,894 $ 0
Deroy Devereaux Private Investment Counsel Inc 2016-09-30 0 Sold All -683,711 $ -11,889 $ 0